Time;durP1;ratioP1;P1;durP2;ratioP2;P2;SDS_P1;SDS_P2;PMS_P1;PMS_P2;Temp;Humidity;BMP_temperature;BMP_pressure;BME280_temperature;BME280_humidity;BME280_pressure;Samples;Min_cycle;Max_cycle;Signal;HPM_P1;HPM_P2
2021/04/04 00:00:51;;;;;;;24.45;6.45;;;;;;;;;;5093502;28;20695;-61
2021/04/04 00:03:18;;;;;;;16.67;6.15;;;;;;;;;;5093689;28;20566;-62
2021/04/04 00:05:46;;;;;;;13.73;6.70;;;;;;;;;;5093572;28;20224;-62
2021/04/04 00:08:13;;;;;;;18.02;7.00;;;;;;;;;;5093205;28;20223;-62
2021/04/04 00:10:39;;;;;;;15.05;7.03;;;;;;;;;;5093673;28;20203;-62
2021/04/04 00:13:06;;;;;;;14.10;6.60;;;;;;;;;;5093629;28;20208;-61
2021/04/04 00:15:33;;;;;;;18.02;6.60;;;;;;;;;;5093419;28;20223;-61
2021/04/04 00:17:59;;;;;;;24.13;7.10;;;;;;;;;;5096813;28;20204;-62
2021/04/04 00:20:26;;;;;;;18.63;6.82;;;;;;;;;;5100678;28;20254;-61
2021/04/04 00:22:54;;;;;;;14.20;6.05;;;;;;;;;;5094530;28;20204;-60
2021/04/04 00:25:21;;;;;;;12.27;6.35;;;;;;;;;;5097324;28;20223;-61
2021/04/04 00:27:47;;;;;;;13.25;5.90;;;;;;;;;;5097398;28;20273;-62
2021/04/04 00:30:15;;;;;;;15.13;8.10;;;;;;;;;;5099361;28;20571;-62
2021/04/04 00:32:42;;;;;;;20.58;7.40;;;;;;;;;;5098334;28;20256;-62
2021/04/04 00:35:10;;;;;;;17.13;7.03;;;;;;;;;;5097587;28;20224;-61
2021/04/04 00:37:37;;;;;;;13.48;7.05;;;;;;;;;;5097301;28;20204;-62
2021/04/04 00:40:08;;;;;;;17.50;7.38;;;;;;;;;;5096992;28;20211;-60
2021/04/04 00:42:35;;;;;;;19.98;6.97;;;;;;;;;;5097365;28;20189;-61
2021/04/04 00:45:02;;;;;;;18.83;7.28;;;;;;;;;;5097294;28;20223;-62
2021/04/04 00:47:28;;;;;;;13.25;6.40;;;;;;;;;;5098358;28;20197;-62
2021/04/04 00:49:55;;;;;;;18.50;6.63;;;;;;;;;;5098740;28;20223;-62
2021/04/04 00:52:22;;;;;;;18.95;6.95;;;;;;;;;;5098753;28;20686;-61
2021/04/04 00:54:49;;;;;;;16.27;7.25;;;;;;;;;;5097172;28;20605;-62
2021/04/04 00:57:16;;;;;;;12.65;6.50;;;;;;;;;;5099209;28;20200;-61
2021/04/04 00:59:43;;;;;;;13.50;6.90;;;;;;;;;;5098594;28;20196;-62
2021/04/04 01:02:14;;;;;;;12.93;6.00;;;;;;;;;;5097131;28;20204;-61
2021/04/04 01:04:42;;;;;;;15.55;6.97;;;;;;;;;;5097100;28;20221;-61
2021/04/04 01:07:09;;;;;;;14.27;6.93;;;;;;;;;;5097073;28;20694;-61
2021/04/04 01:09:36;;;;;;;11.38;6.30;;;;;;;;;;5096805;28;20220;-61
2021/04/04 01:12:04;;;;;;;17.73;7.80;;;;;;;;;;5097671;28;20314;-62
2021/04/04 01:14:34;;;;;;;12.68;7.20;;;;;;;;;;5096727;28;20265;-61
2021/04/04 01:17:02;;;;;;;17.30;7.20;;;;;;;;;;5105615;28;20249;-61
2021/04/04 01:19:42;;;;;;;19.70;8.38;;;;;;;;;;5107311;28;20197;-61
2021/04/04 01:22:15;;;;;;;12.85;7.80;;;;;;;;;;5104789;28;20188;-61
2021/04/04 01:24:46;;;;;;;13.07;7.32;;;;;;;;;;5097429;28;20224;-61
2021/04/04 01:27:17;;;;;;;17.48;7.90;;;;;;;;;;5097175;28;20185;-61
2021/04/04 01:29:45;;;;;;;19.65;8.05;;;;;;;;;;5095998;28;20688;-61
2021/04/04 01:32:12;;;;;;;16.38;7.80;;;;;;;;;;5096247;28;20661;-61
2021/04/04 01:34:40;;;;;;;12.80;7.40;;;;;;;;;;5095109;28;20220;-61
2021/04/04 01:37:09;;;;;;;17.52;7.05;;;;;;;;;;5096474;28;20204;-61
2021/04/04 01:39:38;;;;;;;15.93;7.63;;;;;;;;;;5096382;28;20200;-61
2021/04/04 01:42:06;;;;;;;13.18;6.85;;;;;;;;;;5096841;28;20200;-61
2021/04/04 01:44:34;;;;;;;17.90;7.32;;;;;;;;;;5097821;28;20217;-61
2021/04/04 01:47:03;;;;;;;14.05;7.45;;;;;;;;;;5096947;28;20246;-62
2021/04/04 01:49:31;;;;;;;17.38;7.60;;;;;;;;;;5097270;28;20216;-61
2021/04/04 01:51:58;;;;;;;20.48;6.57;;;;;;;;;;5096966;28;20204;-61
2021/04/04 01:54:25;;;;;;;20.10;7.50;;;;;;;;;;5096836;28;20231;-61
2021/04/04 01:56:54;;;;;;;14.15;7.47;;;;;;;;;;5097711;28;20207;-62
2021/04/04 01:59:21;;;;;;;13.20;6.45;;;;;;;;;;5100363;28;20204;-61
2021/04/04 02:01:48;;;;;;;15.18;6.68;;;;;;;;;;5096817;28;20196;-61
2021/04/04 02:04:16;;;;;;;11.68;5.80;;;;;;;;;;5096843;28;20220;-61
2021/04/04 02:06:43;;;;;;;14.55;6.03;;;;;;;;;;5097279;28;20597;-62
2021/04/04 02:09:11;;;;;;;17.50;6.82;;;;;;;;;;5097822;28;20220;-61
2021/04/04 02:11:39;;;;;;;16.50;6.95;;;;;;;;;;5098026;28;20209;-61
2021/04/04 02:14:07;;;;;;;12.00;6.28;;;;;;;;;;5097252;28;20218;-61
2021/04/04 02:16:35;;;;;;;12.75;5.53;;;;;;;;;;5096855;28;20200;-62
2021/04/04 02:19:03;;;;;;;15.27;6.57;;;;;;;;;;5097610;28;20196;-61
2021/04/04 02:21:30;;;;;;;17.40;7.18;;;;;;;;;;5097919;28;20196;-61
2021/04/04 02:24:00;;;;;;;16.38;7.18;;;;;;;;;;5097427;28;20200;-62
2021/04/04 02:26:29;;;;;;;20.98;6.65;;;;;;;;;;5096852;28;20573;-61
2021/04/04 02:28:55;;;;;;;12.40;6.60;;;;;;;;;;5097353;28;20216;-61
2021/04/04 02:31:22;;;;;;;12.68;6.15;;;;;;;;;;5096328;28;20204;-61
2021/04/04 02:33:50;;;;;;;15.50;5.95;;;;;;;;;;5096529;28;20203;-61
2021/04/04 02:36:17;;;;;;;20.50;6.70;;;;;;;;;;5096599;28;20253;-61
2021/04/04 02:38:45;;;;;;;14.32;6.80;;;;;;;;;;5096198;28;20200;-60
2021/04/04 02:41:12;;;;;;;13.13;7.25;;;;;;;;;;5095995;28;20249;-60
2021/04/04 02:43:40;;;;;;;14.60;7.40;;;;;;;;;;5094962;28;20622;-61
2021/04/04 02:46:09;;;;;;;16.70;8.07;;;;;;;;;;5093778;28;20726;-61
2021/04/04 02:48:38;;;;;;;10.80;6.70;;;;;;;;;;5094412;28;20273;-61
2021/04/04 02:51:06;;;;;;;16.90;8.02;;;;;;;;;;5094534;28;20686;-61
2021/04/04 02:53:35;;;;;;;15.38;7.70;;;;;;;;;;5094766;28;20269;-62
2021/04/04 02:56:02;;;;;;;17.98;7.18;;;;;;;;;;5094570;28;20220;-62
2021/04/04 02:58:30;;;;;;;17.70;6.80;;;;;;;;;;5095127;28;20200;-62
2021/04/04 03:00:57;;;;;;;13.05;5.88;;;;;;;;;;5094552;28;20200;-62
2021/04/04 03:03:26;;;;;;;17.40;7.68;;;;;;;;;;5094404;28;20265;-62
2021/04/04 03:05:54;;;;;;;16.55;6.50;;;;;;;;;;5098825;28;20220;-64
2021/04/04 03:08:21;;;;;;;11.80;7.50;;;;;;;;;;5106474;28;20284;-64
2021/04/04 03:10:50;;;;;;;18.17;7.13;;;;;;;;;;5110570;28;20196;-63
2021/04/04 03:13:19;;;;;;;19.88;8.07;;;;;;;;;;5098878;28;20211;-63
2021/04/04 03:15:46;;;;;;;11.95;6.30;;;;;;;;;;5094936;28;20559;-62
2021/04/04 03:18:14;;;;;;;13.60;6.55;;;;;;;;;;5094442;28;20204;-61
2021/04/04 03:20:41;;;;;;;15.95;7.00;;;;;;;;;;5094075;28;20204;-61
2021/04/04 03:23:08;;;;;;;12.90;7.30;;;;;;;;;;5093820;28;20203;-62
2021/04/04 03:25:36;;;;;;;14.63;7.13;;;;;;;;;;5094112;28;20280;-61
2021/04/04 03:28:03;;;;;;;17.40;6.90;;;;;;;;;;5096208;28;20279;-61
2021/04/04 03:30:42;;;;;;;24.98;7.00;;;;;;;;;;5096797;28;20568;-61
2021/04/04 03:33:09;;;;;;;13.55;6.82;;;;;;;;;;5095845;28;20278;-61
2021/04/04 03:35:37;;;;;;;13.52;7.85;;;;;;;;;;5094712;28;20711;-62
2021/04/04 03:38:05;;;;;;;24.30;7.03;;;;;;;;;;5099144;28;20204;-62
2021/04/04 03:40:32;;;;;;;12.77;6.68;;;;;;;;;;5094676;28;20201;-61
2021/04/04 03:43:00;;;;;;;19.48;7.32;;;;;;;;;;5094372;28;20204;-61
2021/04/04 03:45:27;;;;;;;13.38;6.65;;;;;;;;;;5094378;28;20244;-61
2021/04/04 03:47:55;;;;;;;20.73;7.55;;;;;;;;;;5094191;28;20200;-61
2021/04/04 03:50:22;;;;;;;26.02;7.93;;;;;;;;;;5093882;28;20281;-61
2021/04/04 03:52:50;;;;;;;13.25;6.07;;;;;;;;;;5093595;28;20617;-62
2021/04/04 03:55:19;;;;;;;18.40;7.45;;;;;;;;;;5093319;28;20773;-61
2021/04/04 03:57:46;;;;;;;11.98;7.20;;;;;;;;;;5093121;28;20204;-62
2021/04/04 04:00:13;;;;;;;20.25;8.02;;;;;;;;;;5093651;28;20196;-59
2021/04/04 04:02:41;;;;;;;13.93;8.40;;;;;;;;;;5093617;28;20239;-62
2021/04/04 04:07:57;;;;;;;16.45;7.22;;;;;;;;;;5112063;27;20544;-61
2021/04/04 04:10:24;;;;;;;21.88;7.68;;;;;;;;;;5113280;28;20197;-62
2021/04/04 04:12:51;;;;;;;17.73;7.45;;;;;;;;;;5112572;28;20260;-62
2021/04/04 04:15:18;;;;;;;15.10;6.90;;;;;;;;;;5113054;28;20255;-61
2021/04/04 04:17:46;;;;;;;22.63;7.22;;;;;;;;;;5113065;28;20638;-61
2021/04/04 04:20:13;;;;;;;13.88;6.63;;;;;;;;;;5113132;28;20201;-61
2021/04/04 04:22:40;;;;;;;11.60;6.55;;;;;;;;;;5112002;28;20207;-61
2021/04/04 04:25:12;;;;;;;14.13;6.20;;;;;;;;;;5113005;28;20221;-62
2021/04/04 04:27:39;;;;;;;14.52;6.72;;;;;;;;;;5112040;28;20212;-61
2021/04/04 04:30:06;;;;;;;15.02;7.97;;;;;;;;;;5112852;28;20205;-61
2021/04/04 04:32:34;;;;;;;19.48;7.03;;;;;;;;;;5111960;28;20223;-61
2021/04/04 04:35:01;;;;;;;16.30;6.05;;;;;;;;;;5114034;28;20225;-61
2021/04/04 04:37:29;;;;;;;11.32;6.25;;;;;;;;;;5112447;28;20200;-62
2021/04/04 04:39:55;;;;;;;15.55;6.80;;;;;;;;;;5112574;28;20647;-61
2021/04/04 04:42:23;;;;;;;15.07;6.30;;;;;;;;;;5112999;28;20684;-61
2021/04/04 04:44:51;;;;;;;17.25;7.85;;;;;;;;;;5111813;28;20228;-61
2021/04/04 04:47:17;;;;;;;15.85;7.00;;;;;;;;;;5110376;28;20227;-61
2021/04/04 04:49:45;;;;;;;14.38;6.65;;;;;;;;;;5111286;28;20199;-60
2021/04/04 04:52:12;;;;;;;12.18;6.25;;;;;;;;;;5110532;28;20197;-61
2021/04/04 04:54:41;;;;;;;16.90;7.55;;;;;;;;;;5110404;28;20224;-62
2021/04/04 04:57:08;;;;;;;12.13;6.70;;;;;;;;;;5110194;28;20305;-61
2021/04/04 04:59:36;;;;;;;22.45;7.05;;;;;;;;;;5110145;28;20197;-62
2021/04/04 05:02:04;;;;;;;11.98;6.07;;;;;;;;;;5110480;28;20381;-62
2021/04/04 05:04:31;;;;;;;14.73;6.95;;;;;;;;;;5110360;28;20273;-61
2021/04/04 05:06:58;;;;;;;11.52;6.10;;;;;;;;;;5109893;28;20220;-62
2021/04/04 05:09:26;;;;;;;12.52;6.45;;;;;;;;;;5110299;28;20226;-61
2021/04/04 05:11:53;;;;;;;19.38;7.93;;;;;;;;;;5110260;28;20278;-61
2021/04/04 05:14:20;;;;;;;13.38;5.85;;;;;;;;;;5109856;28;20272;-62
2021/04/04 05:16:48;;;;;;;10.27;8.45;;;;;;;;;;5122630;28;20197;-62
2021/04/04 05:19:15;;;;;;;12.82;5.70;;;;;;;;;;5098844;28;20554;-61
2021/04/04 05:21:43;;;;;;;21.33;7.30;;;;;;;;;;5096338;28;20742;-60
2021/04/04 05:24:11;;;;;;;10.25;5.85;;;;;;;;;;5096074;28;20198;-62
2021/04/04 05:26:39;;;;;;;17.42;7.63;;;;;;;;;;5099420;28;20648;-61
2021/04/04 05:29:08;;;;;;;13.40;6.50;;;;;;;;;;5102833;28;20607;-60
2021/04/04 05:31:35;;;;;;;15.63;6.57;;;;;;;;;;5100550;28;20230;-61
2021/04/04 05:34:03;;;;;;;20.92;7.60;;;;;;;;;;5099979;28;20662;-61
2021/04/04 05:36:30;;;;;;;14.52;5.93;;;;;;;;;;5101199;28;20197;-61
2021/04/04 05:38:57;;;;;;;12.68;6.30;;;;;;;;;;5099288;28;20209;-61
2021/04/04 05:41:24;;;;;;;19.77;5.90;;;;;;;;;;5098871;28;20208;-61
2021/04/04 05:43:52;;;;;;;11.48;4.80;;;;;;;;;;5099185;28;20335;-61
2021/04/04 05:46:25;;;;;;;14.63;5.18;;;;;;;;;;5098848;28;20273;-60
2021/04/04 05:48:57;;;;;;;14.25;5.22;;;;;;;;;;5097254;28;20185;-62
2021/04/04 05:51:46;;;;;;;12.05;5.40;;;;;;;;;;5099515;28;20193;-61
2021/04/04 05:54:29;;;;;;;16.02;5.45;;;;;;;;;;5101599;28;20217;-60
2021/04/04 05:56:59;;;;;;;11.95;4.72;;;;;;;;;;5099909;28;20183;-61
2021/04/04 05:59:31;;;;;;;11.23;4.30;;;;;;;;;;5097866;28;20192;-62
2021/04/04 06:02:16;;;;;;;10.60;4.25;;;;;;;;;;5097154;28;20256;-61
2021/04/04 06:04:53;;;;;;;8.80;4.15;;;;;;;;;;5097188;28;20230;-61
2021/04/04 06:07:38;;;;;;;10.25;3.70;;;;;;;;;;5099568;28;20693;-61
2021/04/04 06:10:07;;;;;;;12.27;4.30;;;;;;;;;;5099890;28;20229;-60
2021/04/04 06:12:40;;;;;;;13.50;4.95;;;;;;;;;;5098488;28;20205;-61
2021/04/04 06:15:17;;;;;;;14.00;3.83;;;;;;;;;;5098034;28;20220;-61
2021/04/04 06:17:47;;;;;;;10.95;4.40;;;;;;;;;;5097788;28;20597;-61
2021/04/04 06:20:22;;;;;;;11.57;4.43;;;;;;;;;;5097340;28;20207;-61
2021/04/04 06:22:53;;;;;;;10.20;3.60;;;;;;;;;;5097836;28;20185;-62
2021/04/04 06:25:28;;;;;;;8.50;3.10;;;;;;;;;;5098404;28;20290;-61
2021/04/04 06:28:00;;;;;;;9.65;4.00;;;;;;;;;;5098657;28;20239;-61
2021/04/04 06:30:47;;;;;;;13.85;3.95;;;;;;;;;;5097747;28;20686;-61
2021/04/04 06:33:18;;;;;;;8.52;3.22;;;;;;;;;;5098101;28;20562;-61
2021/04/04 06:35:48;;;;;;;15.07;3.88;;;;;;;;;;5097706;28;20224;-61
2021/04/04 06:38:41;;;;;;;13.75;4.30;;;;;;;;;;5097775;28;20274;-61
2021/04/04 06:41:11;;;;;;;4.47;2.70;;;;;;;;;;5060867;28;20556;-60
2021/04/04 06:43:41;;;;;;;8.48;3.10;;;;;;;;;;5097897;28;20189;-61
2021/04/04 06:46:12;;;;;;;13.82;4.40;;;;;;;;;;5096458;28;20585;-61
2021/04/04 06:48:45;;;;;;;7.38;3.35;;;;;;;;;;5098353;28;20202;-60
2021/04/04 06:51:15;;;;;;;14.93;3.00;;;;;;;;;;5100469;28;20561;-60
2021/04/04 06:53:50;;;;;;;10.60;3.13;;;;;;;;;;5097511;28;20635;-61
2021/04/04 06:56:21;;;;;;;7.32;3.45;;;;;;;;;;5096474;28;20176;-61
2021/04/04 06:58:58;;;;;;;9.50;3.45;;;;;;;;;;5095481;28;20196;-60
2021/04/04 07:01:34;;;;;;;9.18;3.35;;;;;;;;;;5096901;28;20186;-61
2021/04/04 07:04:03;;;;;;;12.20;3.72;;;;;;;;;;5097041;28;20641;-61
2021/04/04 07:06:52;;;;;;;7.25;3.65;;;;;;;;;;5094909;28;20227;-61
2021/04/04 07:09:31;;;;;;;11.70;3.92;;;;;;;;;;5094478;28;20187;-62
2021/04/04 07:12:06;;;;;;;9.23;3.40;;;;;;;;;;5093970;28;20188;-62
2021/04/04 07:14:50;;;;;;;7.43;4.00;;;;;;;;;;5094356;28;20218;-62
2021/04/04 07:17:23;;;;;;;10.30;4.32;;;;;;;;;;5094717;28;20247;-61
2021/04/04 07:20:22;;;;;;;10.00;4.38;;;;;;;;;;5094324;28;20255;-61
2021/04/04 07:22:59;;;;;;;7.15;3.67;;;;;;;;;;5094148;28;20288;-61
2021/04/04 07:25:36;;;;;;;9.45;3.90;;;;;;;;;;5093638;28;20229;-61
2021/04/04 07:28:08;;;;;;;11.77;4.53;;;;;;;;;;5093764;28;20207;-61
2021/04/04 07:30:36;;;;;;;5.72;3.47;;;;;;;;;;5093764;28;20186;-61
2021/04/04 07:33:16;;;;;;;9.30;5.85;;;;;;;;;;5094290;28;20202;-61
2021/04/04 07:35:47;;;;;;;19.73;4.10;;;;;;;;;;5094902;28;20222;-61
2021/04/04 07:38:18;;;;;;;12.63;3.92;;;;;;;;;;5094088;28;20191;-61
2021/04/04 07:40:50;;;;;;;10.75;3.65;;;;;;;;;;5093543;28;20191;-61
2021/04/04 07:43:22;;;;;;;9.57;3.70;;;;;;;;;;5093936;28;20241;-61
2021/04/04 07:45:53;;;;;;;10.55;4.53;;;;;;;;;;5095963;28;20225;-61
2021/04/04 07:48:23;;;;;;;6.75;3.95;;;;;;;;;;5095556;28;20221;-61
2021/04/04 07:50:56;;;;;;;9.10;5.32;;;;;;;;;;5096294;28;20217;-61
2021/04/04 07:53:28;;;;;;;11.25;5.10;;;;;;;;;;5097508;28;20183;-61
2021/04/04 07:55:59;;;;;;;12.02;4.82;;;;;;;;;;5094677;28;20276;-61
2021/04/04 07:58:29;;;;;;;9.88;4.50;;;;;;;;;;5093933;28;20192;-61
2021/04/04 08:00:59;;;;;;;11.27;4.90;;;;;;;;;;5093626;28;20218;-61
2021/04/04 08:03:30;;;;;;;8.52;4.50;;;;;;;;;;5093040;28;20200;-61
2021/04/04 08:06:02;;;;;;;6.97;4.50;;;;;;;;;;5093089;28;20235;-61
2021/04/04 08:08:32;;;;;;;11.68;4.85;;;;;;;;;;5093496;28;20246;-61
2021/04/04 08:11:00;;;;;;;9.50;4.07;;;;;;;;;;5093497;28;20205;-61
2021/04/04 08:13:32;;;;;;;12.45;4.65;;;;;;;;;;5093535;28;20257;-62
2021/04/04 08:16:06;;;;;;;8.60;4.90;;;;;;;;;;5093200;28;20277;-61
2021/04/04 08:18:33;;;;;;;7.63;3.95;;;;;;;;;;5093688;28;20184;-61
2021/04/04 08:21:02;;;;;;;10.48;4.40;;;;;;;;;;5094081;28;20204;-61
2021/04/04 08:23:30;;;;;;;7.38;4.00;;;;;;;;;;5093856;28;20202;-61
2021/04/04 08:26:00;;;;;;;13.95;5.32;;;;;;;;;;5093340;28;20224;-62
2021/04/04 08:28:29;;;;;;;5.85;3.50;;;;;;;;;;5093880;28;20204;-62
2021/04/04 08:30:58;;;;;;;9.70;4.10;;;;;;;;;;5094383;28;20199;-60
2021/04/04 08:33:29;;;;;;;10.07;4.15;;;;;;;;;;5094141;28;20260;-62
2021/04/04 08:35:58;;;;;;;10.80;4.35;;;;;;;;;;5094085;28;20623;-62
2021/04/04 08:38:27;;;;;;;9.32;3.50;;;;;;;;;;5093977;28;20204;-61
2021/04/04 08:40:56;;;;;;;9.13;3.95;;;;;;;;;;5093637;28;20718;-62
2021/04/04 08:43:23;;;;;;;12.23;4.50;;;;;;;;;;5093093;28;20693;-62
2021/04/04 08:45:53;;;;;;;9.27;3.50;;;;;;;;;;5093068;28;20220;-61
2021/04/04 08:48:21;;;;;;;12.90;4.18;;;;;;;;;;5093014;28;20245;-63
2021/04/04 08:50:48;;;;;;;6.53;3.78;;;;;;;;;;5093077;28;20210;-61
2021/04/04 08:53:23;;;;;;;11.20;4.03;;;;;;;;;;5094336;28;20204;-62
2021/04/04 08:55:51;;;;;;;4.82;2.85;;;;;;;;;;5096731;28;20765;-62
2021/04/04 08:58:19;;;;;;;6.93;3.13;;;;;;;;;;5096855;28;20200;-62
2021/04/04 09:00:46;;;;;;;6.53;3.45;;;;;;;;;;5096492;28;20196;-62
2021/04/04 09:03:18;;;;;;;6.18;3.67;;;;;;;;;;5096630;28;20280;-61
2021/04/04 09:05:46;;;;;;;10.75;3.67;;;;;;;;;;5096028;28;20600;-62
2021/04/04 09:08:14;;;;;;;5.10;3.40;;;;;;;;;;5096856;28;20230;-63
2021/04/04 09:10:41;;;;;;;12.20;3.60;;;;;;;;;;5096600;28;20211;-62
2021/04/04 09:13:09;;;;;;;8.63;3.45;;;;;;;;;;5096408;28;20282;-61
2021/04/04 09:15:43;;;;;;;8.57;3.90;;;;;;;;;;5096767;28;20688;-62
2021/04/04 09:18:10;;;;;;;8.05;3.30;;;;;;;;;;5096269;28;20187;-62
2021/04/04 09:20:39;;;;;;;7.53;3.65;;;;;;;;;;5096013;28;20692;-62
2021/04/04 09:23:06;;;;;;;8.02;4.10;;;;;;;;;;5096065;28;20736;-61
2021/04/04 09:25:37;;;;;;;10.05;4.40;;;;;;;;;;5096407;28;20231;-60
2021/04/04 09:28:07;;;;;;;5.40;3.60;;;;;;;;;;5096410;28;20214;-61
2021/04/04 09:30:34;;;;;;;8.25;3.80;;;;;;;;;;5097648;28;20192;-62
2021/04/04 09:33:02;;;;;;;3.45;3.00;;;;;;;;;;5096296;28;20295;-61
2021/04/04 09:35:29;;;;;;;6.05;3.50;;;;;;;;;;5096086;28;20277;-61
2021/04/04 09:37:59;;;;;;;5.03;2.97;;;;;;;;;;5097386;28;20203;-62
2021/04/04 09:40:27;;;;;;;9.20;5.55;;;;;;;;;;5096041;28;20245;-62
2021/04/04 09:42:55;;;;;;;7.32;3.30;;;;;;;;;;5095792;28;20299;-61
2021/04/04 09:45:22;;;;;;;4.82;2.35;;;;;;;;;;5095918;28;20224;-62
2021/04/04 09:47:50;;;;;;;3.83;2.53;;;;;;;;;;5095490;28;20232;-62
2021/04/04 09:50:18;;;;;;;4.20;2.72;;;;;;;;;;5095970;28;20200;-61
2021/04/04 09:52:45;;;;;;;5.35;3.33;;;;;;;;;;5095515;28;20295;-61
2021/04/04 09:55:14;;;;;;;6.28;2.70;;;;;;;;;;5095749;28;20223;-62
2021/04/04 09:57:42;;;;;;;4.80;2.78;;;;;;;;;;5097224;28;20207;-60
2021/04/04 10:00:16;;;;;;;2.47;2.28;;;;;;;;;;5099652;28;20208;-61
2021/04/04 10:02:43;;;;;;;3.28;2.45;;;;;;;;;;5098986;28;20204;-62
2021/04/04 10:05:10;;;;;;;5.20;2.90;;;;;;;;;;5099445;28;20228;-61
2021/04/04 10:07:37;;;;;;;3.20;2.35;;;;;;;;;;5095778;28;20231;-61
2021/04/04 10:10:05;;;;;;;4.32;2.65;;;;;;;;;;5095739;28;20591;-62
2021/04/04 10:12:54;;;;;;;5.15;2.50;;;;;;;;;;5095331;28;20227;-62
2021/04/04 10:15:22;;;;;;;3.33;2.15;;;;;;;;;;5096142;28;20228;-61
2021/04/04 10:17:56;;;;;;;3.47;2.33;;;;;;;;;;5095427;28;20234;-62
2021/04/04 10:20:32;;;;;;;3.15;2.20;;;;;;;;;;5096132;28;20200;-61
2021/04/04 10:22:59;;;;;;;2.53;2.28;;;;;;;;;;5095381;28;20203;-60
2021/04/04 10:25:26;;;;;;;6.55;2.67;;;;;;;;;;5094949;28;20258;-61
2021/04/04 10:28:04;;;;;;;6.03;2.33;;;;;;;;;;5094918;28;20269;-61
2021/04/04 10:30:32;;;;;;;2.95;2.10;;;;;;;;;;5094799;28;20717;-62
2021/04/04 10:33:17;;;;;;;3.47;2.33;;;;;;;;;;5095121;28;20204;-61
2021/04/04 10:35:44;;;;;;;3.47;2.22;;;;;;;;;;5095041;28;20224;-62
2021/04/04 10:38:12;;;;;;;3.95;2.30;;;;;;;;;;5094921;28;20597;-62
2021/04/04 10:40:46;;;;;;;4.40;2.38;;;;;;;;;;5095159;28;20211;-62
2021/04/04 10:43:13;;;;;;;5.60;2.70;;;;;;;;;;5095103;28;20569;-61
2021/04/04 10:45:55;;;;;;;6.97;2.60;;;;;;;;;;5095208;28;20739;-62
2021/04/04 10:48:23;;;;;;;4.07;2.30;;;;;;;;;;5095569;28;20204;-61
2021/04/04 10:50:50;;;;;;;3.60;2.25;;;;;;;;;;5095743;28;20204;-62
2021/04/04 10:53:18;;;;;;;3.92;2.30;;;;;;;;;;5097629;28;20204;-61
2021/04/04 10:55:45;;;;;;;4.43;3.00;;;;;;;;;;5096693;28;20220;-62
2021/04/04 10:58:12;;;;;;;5.57;2.67;;;;;;;;;;5097049;28;20265;-61
2021/04/04 11:00:39;;;;;;;2.63;2.13;;;;;;;;;;5095749;28;20214;-61
2021/04/04 11:03:07;;;;;;;4.20;2.58;;;;;;;;;;5096934;28;20204;-62
2021/04/04 11:05:35;;;;;;;2.92;2.30;;;;;;;;;;5095350;28;20224;-62
2021/04/04 11:08:03;;;;;;;4.65;2.72;;;;;;;;;;5095084;28;20617;-61
2021/04/04 11:10:30;;;;;;;4.80;2.53;;;;;;;;;;5094866;28;20294;-62
2021/04/04 11:12:58;;;;;;;7.03;2.90;;;;;;;;;;5094872;28;20200;-61
2021/04/04 11:15:25;;;;;;;4.68;2.72;;;;;;;;;;5099638;28;20224;-61
2021/04/04 11:17:52;;;;;;;5.57;2.80;;;;;;;;;;5100384;28;20237;-61
2021/04/04 11:20:20;;;;;;;4.45;3.05;;;;;;;;;;5102742;28;20211;-61
2021/04/04 11:22:48;;;;;;;4.32;2.83;;;;;;;;;;5103570;28;20203;-61
2021/04/04 11:25:16;;;;;;;4.47;2.75;;;;;;;;;;5104635;28;20223;-61
2021/04/04 11:27:47;;;;;;;3.60;2.75;;;;;;;;;;5104897;28;20219;-61
2021/04/04 11:30:15;;;;;;;5.15;2.60;;;;;;;;;;5098581;28;20200;-62
2021/04/04 11:32:42;;;;;;;4.63;3.08;;;;;;;;;;5097996;28;20203;-61
2021/04/04 11:35:09;;;;;;;6.60;2.80;;;;;;;;;;5096905;28;20255;-61
2021/04/04 11:37:37;;;;;;;7.00;3.22;;;;;;;;;;5094059;28;20285;-63
2021/04/04 11:40:31;;;;;;;5.35;3.13;;;;;;;;;;5097104;28;20571;-62
2021/04/04 11:43:13;;;;;;;7.60;3.88;;;;;;;;;;5098650;28;20187;-61
2021/04/04 11:45:41;;;;;;;3.58;2.78;;;;;;;;;;5098027;28;20312;-61
2021/04/04 11:48:28;;;;;;;4.78;3.60;;;;;;;;;;5099032;28;20219;-62
2021/04/04 11:50:55;;;;;;;4.60;3.10;;;;;;;;;;5100107;28;20197;-62
2021/04/04 11:53:40;;;;;;;7.20;2.83;;;;;;;;;;5100102;28;20547;-61
2021/04/04 11:56:07;;;;;;;5.28;2.85;;;;;;;;;;5096213;28;20685;-61
2021/04/04 11:58:34;;;;;;;4.05;2.95;;;;;;;;;;5095643;28;20225;-62
2021/04/04 12:01:02;;;;;;;3.45;2.90;;;;;;;;;;5096067;28;20668;-62
2021/04/04 12:03:29;;;;;;;5.75;3.20;;;;;;;;;;5096034;28;20204;-62
2021/04/04 12:05:56;;;;;;;2.97;2.38;;;;;;;;;;5096426;28;20231;-62
2021/04/04 12:08:30;;;;;;;4.10;2.75;;;;;;;;;;5096566;28;20258;-61
2021/04/04 12:10:57;;;;;;;7.80;2.92;;;;;;;;;;5095244;28;20215;-61
2021/04/04 12:13:23;;;;;;;7.22;3.35;;;;;;;;;;5096187;28;20204;-61
2021/04/04 12:15:59;;;;;;;5.18;2.88;;;;;;;;;;5096950;28;20220;-62
2021/04/04 12:18:26;;;;;;;4.78;2.72;;;;;;;;;;5096971;28;20263;-61
2021/04/04 12:21:00;;;;;;;9.20;3.45;;;;;;;;;;5095168;28;20281;-62
2021/04/04 12:23:27;;;;;;;4.28;3.03;;;;;;;;;;5093315;28;20736;-62
2021/04/04 12:25:54;;;;;;;6.50;3.40;;;;;;;;;;5093719;28;20273;-64
2021/04/04 12:28:20;;;;;;;5.20;2.85;;;;;;;;;;5095102;28;20223;-61
2021/04/04 12:30:47;;;;;;;4.00;3.20;;;;;;;;;;5098367;28;20257;-61
2021/04/04 12:33:15;;;;;;;4.78;2.45;;;;;;;;;;5097267;28;20200;-62
2021/04/04 12:35:44;;;;;;;5.00;2.63;;;;;;;;;;5097007;28;20246;-63
2021/04/04 12:38:21;;;;;;;6.72;3.10;;;;;;;;;;5097862;28;20204;-63
2021/04/04 12:40:48;;;;;;;5.93;3.20;;;;;;;;;;5098435;28;20559;-62
2021/04/04 12:43:14;;;;;;;4.40;2.78;;;;;;;;;;5098011;28;20200;-62
2021/04/04 12:45:41;;;;;;;6.32;3.17;;;;;;;;;;5098673;28;20224;-63
2021/04/04 12:48:12;;;;;;;3.67;2.60;;;;;;;;;;5097830;28;20220;-62
2021/04/04 12:50:39;;;;;;;3.58;2.75;;;;;;;;;;5098282;28;20230;-62
2021/04/04 12:53:06;;;;;;;4.22;3.00;;;;;;;;;;5098038;28;20200;-62
2021/04/04 12:55:33;;;;;;;3.10;2.60;;;;;;;;;;5098582;28;20269;-61
2021/04/04 12:58:01;;;;;;;5.47;2.92;;;;;;;;;;5098322;28;20196;-62
2021/04/04 13:00:29;;;;;;;4.07;3.30;;;;;;;;;;5099150;28;20201;-63
2021/04/04 13:02:57;;;;;;;5.88;3.63;;;;;;;;;;5098322;28;20616;-62
2021/04/04 13:05:25;;;;;;;5.68;2.47;;;;;;;;;;5097437;28;20224;-61
2021/04/04 13:07:52;;;;;;;4.25;2.72;;;;;;;;;;5096937;28;20238;-61
2021/04/04 13:10:19;;;;;;;7.05;3.70;;;;;;;;;;5096336;28;20204;-62
2021/04/04 13:12:46;;;;;;;7.90;3.80;;;;;;;;;;5097781;28;20203;-62
2021/04/04 13:15:23;;;;;;;5.82;4.00;;;;;;;;;;5097290;28;20219;-63
2021/04/04 13:17:50;;;;;;;5.55;4.40;;;;;;;;;;5096906;28;20195;-62
2021/04/04 13:20:17;;;;;;;8.48;4.38;;;;;;;;;;5097444;28;20210;-61
2021/04/04 13:22:44;;;;;;;7.82;4.25;;;;;;;;;;5097395;28;20200;-61
2021/04/04 13:25:12;;;;;;;8.18;4.72;;;;;;;;;;5097024;28;20230;-62
2021/04/04 13:27:40;;;;;;;5.97;3.65;;;;;;;;;;5097477;28;20592;-62
2021/04/04 13:30:07;;;;;;;6.35;3.85;;;;;;;;;;5098409;28;20785;-62
2021/04/04 13:32:44;;;;;;;3.92;3.25;;;;;;;;;;5097817;28;20273;-61
2021/04/04 13:35:11;;;;;;;6.28;3.53;;;;;;;;;;5097426;28;20223;-62
2021/04/04 13:37:44;;;;;;;6.05;4.20;;;;;;;;;;5096290;28;20203;-62
2021/04/04 13:40:12;;;;;;;8.52;4.20;;;;;;;;;;5095766;28;20211;-62
2021/04/04 13:42:49;;;;;;;5.80;3.75;;;;;;;;;;5096053;28;20305;-62
2021/04/04 13:45:34;;;;;;;6.03;4.10;;;;;;;;;;5095541;28;20224;-61
2021/04/04 13:48:01;;;;;;;7.00;4.85;;;;;;;;;;5095960;28;20288;-62
2021/04/04 13:50:37;;;;;;;7.88;5.00;;;;;;;;;;5095959;28;20200;-62
2021/04/04 13:53:14;;;;;;;7.13;4.50;;;;;;;;;;5095878;28;20599;-62
2021/04/04 13:55:41;;;;;;;8.20;4.07;;;;;;;;;;5095961;28;20274;-63
2021/04/04 13:58:09;;;;;;;7.60;4.05;;;;;;;;;;5095785;28;20196;-61
2021/04/04 14:00:42;;;;;;;9.40;4.50;;;;;;;;;;5096091;28;20204;-63
2021/04/04 14:03:10;;;;;;;12.07;5.45;;;;;;;;;;5095719;28;20207;-62
2021/04/04 14:05:36;;;;;;;11.13;5.75;;;;;;;;;;5095021;28;20250;-64
2021/04/04 14:08:05;;;;;;;9.38;5.13;;;;;;;;;;5095736;28;20230;-62
2021/04/04 14:10:32;;;;;;;10.93;4.72;;;;;;;;;;5095725;28;20246;-61
2021/04/04 14:12:59;;;;;;;6.38;4.60;;;;;;;;;;5095540;28;20211;-63
2021/04/04 14:15:27;;;;;;;8.75;4.80;;;;;;;;;;5095286;28;20224;-61
2021/04/04 14:17:53;;;;;;;10.77;5.57;;;;;;;;;;5095569;28;20200;-63
2021/04/04 14:20:20;;;;;;;10.02;4.32;;;;;;;;;;5096522;28;20245;-61
2021/04/04 14:22:47;;;;;;;8.93;4.57;;;;;;;;;;5098846;28;20677;-62
2021/04/04 14:25:14;;;;;;;7.85;4.97;;;;;;;;;;5096465;28;20221;-63
2021/04/04 14:27:40;;;;;;;10.55;4.85;;;;;;;;;;5095693;28;20216;-62
2021/04/04 14:30:08;;;;;;;8.32;5.35;;;;;;;;;;5095398;28;20200;-62
2021/04/04 14:32:35;;;;;;;11.65;5.95;;;;;;;;;;5095202;28;20253;-61
2021/04/04 14:35:02;;;;;;;10.73;5.07;;;;;;;;;;5094551;28;20781;-60
2021/04/04 14:37:30;;;;;;;5.43;4.05;;;;;;;;;;5094902;28;20200;-61
2021/04/04 14:39:56;;;;;;;7.47;4.10;;;;;;;;;;5094922;28;20616;-63
2021/04/04 14:42:23;;;;;;;9.65;5.72;;;;;;;;;;5095771;28;20203;-61
2021/04/04 14:44:50;;;;;;;13.15;4.90;;;;;;;;;;5095160;28;20224;-62
2021/04/04 14:47:17;;;;;;;6.82;4.75;;;;;;;;;;5094704;28;20307;-61
2021/04/04 14:49:45;;;;;;;9.25;4.78;;;;;;;;;;5096560;28;20197;-62
2021/04/04 14:52:12;;;;;;;6.63;4.88;;;;;;;;;;5095947;28;20200;-62